sensor_id;sensor_type;location;lat;lon;timestamp;P1;durP1;ratioP1;P2;durP2;ratioP2
5791;SDS011;2922;53.482;10.006;2023-08-12T00:00:09;6.20;;;4.03;;
5791;SDS011;2922;53.482;10.006;2023-08-12T00:02:42;4.70;;;4.00;;
5791;SDS011;2922;53.482;10.006;2023-08-12T00:05:08;7.70;;;4.10;;
5791;SDS011;2922;53.482;10.006;2023-08-12T00:07:36;6.77;;;4.33;;
5791;SDS011;2922;53.482;10.006;2023-08-12T00:10:02;7.30;;;4.10;;
5791;SDS011;2922;53.482;10.006;2023-08-12T00:12:30;6.30;;;4.00;;
5791;SDS011;2922;53.482;10.006;2023-08-12T00:14:57;10.40;;;4.40;;
5791;SDS011;2922;53.482;10.006;2023-08-12T00:17:22;5.33;;;4.13;;
5791;SDS011;2922;53.482;10.006;2023-08-12T00:19:48;7.93;;;4.23;;
5791;SDS011;2922;53.482;10.006;2023-08-12T00:22:14;7.80;;;4.07;;
5791;SDS011;2922;53.482;10.006;2023-08-12T00:24:39;5.47;;;4.37;;
5791;SDS011;2922;53.482;10.006;2023-08-12T00:27:05;7.47;;;4.20;;
5791;SDS011;2922;53.482;10.006;2023-08-12T00:29:35;6.97;;;4.30;;
5791;SDS011;2922;53.482;10.006;2023-08-12T00:32:01;4.67;;;4.17;;
5791;SDS011;2922;53.482;10.006;2023-08-12T00:34:27;4.43;;;3.90;;
5791;SDS011;2922;53.482;10.006;2023-08-12T00:36:53;7.30;;;4.73;;
5791;SDS011;2922;53.482;10.006;2023-08-12T00:39:19;6.87;;;5.00;;
5791;SDS011;2922;53.482;10.006;2023-08-12T00:41:44;4.93;;;4.03;;
5791;SDS011;2922;53.482;10.006;2023-08-12T00:44:10;9.20;;;3.97;;
5791;SDS011;2922;53.482;10.006;2023-08-12T00:46:36;6.33;;;3.90;;
5791;SDS011;2922;53.482;10.006;2023-08-12T00:49:06;4.93;;;3.83;;
5791;SDS011;2922;53.482;10.006;2023-08-12T00:51:32;8.80;;;4.07;;
5791;SDS011;2922;53.482;10.006;2023-08-12T00:53:58;4.53;;;3.97;;
5791;SDS011;2922;53.482;10.006;2023-08-12T00:56:25;5.77;;;3.47;;
5791;SDS011;2922;53.482;10.006;2023-08-12T00:58:52;10.30;;;3.87;;
5791;SDS011;2922;53.482;10.006;2023-08-12T01:01:18;4.33;;;3.60;;
5791;SDS011;2922;53.482;10.006;2023-08-12T01:03:44;6.70;;;4.03;;
5791;SDS011;2922;53.482;10.006;2023-08-12T01:06:10;6.73;;;3.70;;
5791;SDS011;2922;53.482;10.006;2023-08-12T01:08:37;5.90;;;3.90;;
5791;SDS011;2922;53.482;10.006;2023-08-12T01:11:06;5.47;;;4.00;;
5791;SDS011;2922;53.482;10.006;2023-08-12T01:14:31;5.10;;;3.50;;
5791;SDS011;2922;53.482;10.006;2023-08-12T01:16:34;7.00;;;3.80;;
5791;SDS011;2922;53.482;10.006;2023-08-12T01:19:05;3.80;;;3.33;;
5791;SDS011;2922;53.482;10.006;2023-08-12T01:21:34;5.87;;;3.80;;
5791;SDS011;2922;53.482;10.006;2023-08-12T01:24:06;7.87;;;3.80;;
5791;SDS011;2922;53.482;10.006;2023-08-12T01:26:32;8.60;;;3.67;;
5791;SDS011;2922;53.482;10.006;2023-08-12T01:28:57;6.13;;;3.50;;
5791;SDS011;2922;53.482;10.006;2023-08-12T01:36:34;5.50;;;3.57;;
5791;SDS011;2922;53.482;10.006;2023-08-12T01:39:04;5.30;;;3.77;;
5791;SDS011;2922;53.482;10.006;2023-08-12T01:41:33;10.63;;;3.87;;
5791;SDS011;2922;53.482;10.006;2023-08-12T01:44:00;8.10;;;3.70;;
5791;SDS011;2922;53.482;10.006;2023-08-12T01:46:27;5.23;;;4.00;;
5791;SDS011;2922;53.482;10.006;2023-08-12T01:48:53;6.87;;;3.90;;
5791;SDS011;2922;53.482;10.006;2023-08-12T01:51:18;6.23;;;4.30;;
5791;SDS011;2922;53.482;10.006;2023-08-12T01:53:44;7.20;;;3.90;;
5791;SDS011;2922;53.482;10.006;2023-08-12T01:56:10;5.30;;;4.27;;
5791;SDS011;2922;53.482;10.006;2023-08-12T01:58:35;5.03;;;4.10;;
5791;SDS011;2922;53.482;10.006;2023-08-12T02:01:01;5.10;;;3.97;;
5791;SDS011;2922;53.482;10.006;2023-08-12T02:03:26;15.87;;;4.47;;
5791;SDS011;2922;53.482;10.006;2023-08-12T02:05:52;7.23;;;4.13;;
5791;SDS011;2922;53.482;10.006;2023-08-12T02:08:17;5.70;;;4.23;;
5791;SDS011;2922;53.482;10.006;2023-08-12T02:10:43;6.13;;;4.30;;
5791;SDS011;2922;53.482;10.006;2023-08-12T02:13:08;11.00;;;4.00;;
5791;SDS011;2922;53.482;10.006;2023-08-12T02:15:34;15.03;;;6.63;;
5791;SDS011;2922;53.482;10.006;2023-08-12T02:18:00;9.33;;;4.20;;
5791;SDS011;2922;53.482;10.006;2023-08-12T02:20:25;4.00;;;3.63;;
5791;SDS011;2922;53.482;10.006;2023-08-12T02:22:51;7.33;;;4.17;;
5791;SDS011;2922;53.482;10.006;2023-08-12T02:25:16;5.57;;;3.90;;
5791;SDS011;2922;53.482;10.006;2023-08-12T02:27:42;5.40;;;4.40;;
5791;SDS011;2922;53.482;10.006;2023-08-12T02:30:07;11.23;;;3.93;;
5791;SDS011;2922;53.482;10.006;2023-08-12T02:32:33;6.30;;;3.60;;
5791;SDS011;2922;53.482;10.006;2023-08-12T02:34:59;6.10;;;4.00;;
5791;SDS011;2922;53.482;10.006;2023-08-12T02:37:24;11.13;;;4.23;;
5791;SDS011;2922;53.482;10.006;2023-08-12T02:39:50;5.90;;;4.10;;
5791;SDS011;2922;53.482;10.006;2023-08-12T02:42:15;7.90;;;4.70;;
5791;SDS011;2922;53.482;10.006;2023-08-12T02:44:41;11.70;;;4.97;;
5791;SDS011;2922;53.482;10.006;2023-08-12T02:47:07;9.23;;;4.00;;
5791;SDS011;2922;53.482;10.006;2023-08-12T02:49:32;5.53;;;4.53;;
5791;SDS011;2922;53.482;10.006;2023-08-12T02:51:58;7.47;;;4.40;;
5791;SDS011;2922;53.482;10.006;2023-08-12T02:54:23;9.50;;;5.40;;
5791;SDS011;2922;53.482;10.006;2023-08-12T02:56:49;5.13;;;4.20;;
5791;SDS011;2922;53.482;10.006;2023-08-12T02:59:15;9.83;;;4.50;;
5791;SDS011;2922;53.482;10.006;2023-08-12T03:01:44;4.20;;;3.80;;
5791;SDS011;2922;53.482;10.006;2023-08-12T03:04:10;8.17;;;3.90;;
5791;SDS011;2922;53.482;10.006;2023-08-12T03:06:36;6.97;;;4.77;;
5791;SDS011;2922;53.482;10.006;2023-08-12T03:09:01;4.90;;;4.20;;
5791;SDS011;2922;53.482;10.006;2023-08-12T03:11:27;5.47;;;4.90;;
5791;SDS011;2922;53.482;10.006;2023-08-12T03:13:53;8.93;;;4.23;;
5791;SDS011;2922;53.482;10.006;2023-08-12T03:16:18;8.13;;;4.50;;
5791;SDS011;2922;53.482;10.006;2023-08-12T03:18:44;11.77;;;4.23;;
5791;SDS011;2922;53.482;10.006;2023-08-12T03:21:10;10.77;;;5.03;;
5791;SDS011;2922;53.482;10.006;2023-08-12T03:23:35;12.43;;;6.17;;
5791;SDS011;2922;53.482;10.006;2023-08-12T03:26:02;5.93;;;4.00;;
5791;SDS011;2922;53.482;10.006;2023-08-12T03:28:28;5.00;;;4.17;;
5791;SDS011;2922;53.482;10.006;2023-08-12T03:30:54;7.50;;;3.90;;
5791;SDS011;2922;53.482;10.006;2023-08-12T03:33:19;7.77;;;4.27;;
5791;SDS011;2922;53.482;10.006;2023-08-12T03:35:45;7.73;;;4.57;;
5791;SDS011;2922;53.482;10.006;2023-08-12T03:38:12;9.77;;;4.33;;
5791;SDS011;2922;53.482;10.006;2023-08-12T03:40:38;8.27;;;4.30;;
5791;SDS011;2922;53.482;10.006;2023-08-12T03:43:04;4.53;;;4.03;;
5791;SDS011;2922;53.482;10.006;2023-08-12T03:45:29;7.63;;;4.10;;
5791;SDS011;2922;53.482;10.006;2023-08-12T03:47:55;6.87;;;4.40;;
5791;SDS011;2922;53.482;10.006;2023-08-12T03:50:20;11.33;;;4.17;;
5791;SDS011;2922;53.482;10.006;2023-08-12T03:52:46;5.90;;;3.80;;
5791;SDS011;2922;53.482;10.006;2023-08-12T03:55:11;11.23;;;4.40;;
5791;SDS011;2922;53.482;10.006;2023-08-12T03:57:37;11.70;;;4.20;;
5791;SDS011;2922;53.482;10.006;2023-08-12T04:00:03;8.00;;;4.10;;
5791;SDS011;2922;53.482;10.006;2023-08-12T04:02:29;9.47;;;4.63;;
5791;SDS011;2922;53.482;10.006;2023-08-12T04:04:55;5.50;;;3.90;;
5791;SDS011;2922;53.482;10.006;2023-08-12T04:07:20;7.20;;;4.23;;
5791;SDS011;2922;53.482;10.006;2023-08-12T04:09:46;10.70;;;4.00;;
5791;SDS011;2922;53.482;10.006;2023-08-12T04:12:12;6.37;;;4.30;;
5791;SDS011;2922;53.482;10.006;2023-08-12T04:14:37;5.10;;;3.60;;
5791;SDS011;2922;53.482;10.006;2023-08-12T04:17:03;6.03;;;3.70;;
5791;SDS011;2922;53.482;10.006;2023-08-12T04:19:28;9.33;;;4.60;;
5791;SDS011;2922;53.482;10.006;2023-08-12T04:21:54;5.10;;;4.10;;
5791;SDS011;2922;53.482;10.006;2023-08-12T04:24:19;7.53;;;4.10;;
5791;SDS011;2922;53.482;10.006;2023-08-12T04:26:45;5.67;;;3.90;;
5791;SDS011;2922;53.482;10.006;2023-08-12T04:29:10;7.10;;;4.13;;
5791;SDS011;2922;53.482;10.006;2023-08-12T04:31:36;5.53;;;4.33;;
5791;SDS011;2922;53.482;10.006;2023-08-12T04:34:02;8.37;;;4.30;;
5791;SDS011;2922;53.482;10.006;2023-08-12T04:36:29;5.47;;;4.27;;
5791;SDS011;2922;53.482;10.006;2023-08-12T04:38:55;7.07;;;4.50;;
5791;SDS011;2922;53.482;10.006;2023-08-12T04:41:20;5.63;;;4.13;;
5791;SDS011;2922;53.482;10.006;2023-08-12T04:43:48;8.30;;;4.33;;
5791;SDS011;2922;53.482;10.006;2023-08-12T04:46:14;6.17;;;3.60;;
5791;SDS011;2922;53.482;10.006;2023-08-12T04:48:40;5.70;;;3.93;;
5791;SDS011;2922;53.482;10.006;2023-08-12T04:51:05;6.80;;;4.90;;
5791;SDS011;2922;53.482;10.006;2023-08-12T04:53:32;6.80;;;4.60;;
5791;SDS011;2922;53.482;10.006;2023-08-12T04:55:57;4.50;;;3.97;;
5791;SDS011;2922;53.482;10.006;2023-08-12T04:58:23;5.03;;;4.17;;
5791;SDS011;2922;53.482;10.006;2023-08-12T05:00:49;6.77;;;4.33;;
5791;SDS011;2922;53.482;10.006;2023-08-12T05:03:17;8.77;;;5.00;;
5791;SDS011;2922;53.482;10.006;2023-08-12T05:05:42;6.53;;;4.50;;
5791;SDS011;2922;53.482;10.006;2023-08-12T05:08:08;7.07;;;4.87;;
5791;SDS011;2922;53.482;10.006;2023-08-12T05:10:34;6.10;;;4.37;;
5791;SDS011;2922;53.482;10.006;2023-08-12T10:14:27;10.03;;;6.50;;
5791;SDS011;2922;53.482;10.006;2023-08-12T10:16:54;7.87;;;5.27;;
5791;SDS011;2922;53.482;10.006;2023-08-12T10:19:20;9.30;;;5.23;;
5791;SDS011;2922;53.482;10.006;2023-08-12T10:21:48;8.53;;;4.90;;
5791;SDS011;2922;53.482;10.006;2023-08-12T10:24:16;7.07;;;5.60;;
5791;SDS011;2922;53.482;10.006;2023-08-12T10:26:42;8.80;;;4.60;;
5791;SDS011;2922;53.482;10.006;2023-08-12T10:29:08;5.37;;;4.40;;
5791;SDS011;2922;53.482;10.006;2023-08-12T10:31:34;11.83;;;4.90;;
5791;SDS011;2922;53.482;10.006;2023-08-12T10:34:00;7.30;;;4.30;;
5791;SDS011;2922;53.482;10.006;2023-08-12T10:36:26;5.73;;;4.30;;
5791;SDS011;2922;53.482;10.006;2023-08-12T10:38:52;4.20;;;3.50;;
5791;SDS011;2922;53.482;10.006;2023-08-12T10:46:32;5.10;;;3.30;;
5791;SDS011;2922;53.482;10.006;2023-08-12T10:49:03;4.63;;;3.47;;
5791;SDS011;2922;53.482;10.006;2023-08-12T10:51:40;6.33;;;4.10;;
5791;SDS011;2922;53.482;10.006;2023-08-12T10:54:11;6.73;;;3.47;;
5791;SDS011;2922;53.482;10.006;2023-08-12T10:57:03;5.80;;;3.10;;
5791;SDS011;2922;53.482;10.006;2023-08-12T10:59:48;5.07;;;3.37;;
5791;SDS011;2922;53.482;10.006;2023-08-12T11:02:26;3.70;;;2.90;;
5791;SDS011;2922;53.482;10.006;2023-08-12T11:05:00;5.10;;;2.90;;
5791;SDS011;2922;53.482;10.006;2023-08-12T11:07:39;4.37;;;3.67;;
5791;SDS011;2922;53.482;10.006;2023-08-12T11:12:40;10.73;;;5.47;;
5791;SDS011;2922;53.482;10.006;2023-08-12T11:15:10;6.73;;;3.53;;
5791;SDS011;2922;53.482;10.006;2023-08-12T11:17:38;8.50;;;4.57;;
5791;SDS011;2922;53.482;10.006;2023-08-12T11:20:06;5.07;;;3.83;;
5791;SDS011;2922;53.482;10.006;2023-08-12T11:22:41;6.20;;;4.20;;
5791;SDS011;2922;53.482;10.006;2023-08-12T11:25:08;8.57;;;4.70;;
5791;SDS011;2922;53.482;10.006;2023-08-12T11:27:41;6.20;;;4.10;;
5791;SDS011;2922;53.482;10.006;2023-08-12T11:30:15;4.20;;;3.77;;
5791;SDS011;2922;53.482;10.006;2023-08-12T11:32:45;5.83;;;4.97;;
5791;SDS011;2922;53.482;10.006;2023-08-12T11:35:12;5.43;;;4.20;;
5791;SDS011;2922;53.482;10.006;2023-08-12T11:37:39;5.60;;;4.13;;
5791;SDS011;2922;53.482;10.006;2023-08-12T11:40:08;7.10;;;4.53;;
5791;SDS011;2922;53.482;10.006;2023-08-12T11:42:38;6.63;;;5.00;;
5791;SDS011;2922;53.482;10.006;2023-08-12T11:45:05;10.00;;;5.03;;
5791;SDS011;2922;53.482;10.006;2023-08-12T11:47:32;8.73;;;4.70;;
5791;SDS011;2922;53.482;10.006;2023-08-12T11:49:58;6.03;;;4.40;;
5791;SDS011;2922;53.482;10.006;2023-08-12T11:52:28;7.87;;;4.70;;
5791;SDS011;2922;53.482;10.006;2023-08-12T11:54:54;5.80;;;5.20;;
5791;SDS011;2922;53.482;10.006;2023-08-12T11:57:21;9.20;;;5.30;;
5791;SDS011;2922;53.482;10.006;2023-08-12T11:59:48;7.20;;;5.70;;
5791;SDS011;2922;53.482;10.006;2023-08-12T12:02:16;5.70;;;5.10;;
5791;SDS011;2922;53.482;10.006;2023-08-12T12:04:42;8.83;;;5.70;;
5791;SDS011;2922;53.482;10.006;2023-08-12T12:07:21;9.10;;;5.53;;
5791;SDS011;2922;53.482;10.006;2023-08-12T12:09:52;7.10;;;5.67;;
5791;SDS011;2922;53.482;10.006;2023-08-12T12:12:25;13.60;;;6.10;;
5791;SDS011;2922;53.482;10.006;2023-08-12T12:14:55;8.57;;;5.83;;
5791;SDS011;2922;53.482;10.006;2023-08-12T12:17:24;9.47;;;6.20;;
5791;SDS011;2922;53.482;10.006;2023-08-12T12:19:54;9.20;;;6.47;;
5791;SDS011;2922;53.482;10.006;2023-08-12T12:22:25;7.83;;;6.50;;
5791;SDS011;2922;53.482;10.006;2023-08-12T12:25:05;11.27;;;7.10;;
5791;SDS011;2922;53.482;10.006;2023-08-12T12:27:36;8.70;;;6.50;;
5791;SDS011;2922;53.482;10.006;2023-08-12T12:30:10;7.53;;;6.13;;
5791;SDS011;2922;53.482;10.006;2023-08-12T12:32:37;9.13;;;7.17;;
5791;SDS011;2922;53.482;10.006;2023-08-12T12:35:03;7.20;;;5.80;;
5791;SDS011;2922;53.482;10.006;2023-08-12T12:37:32;10.03;;;6.30;;
5791;SDS011;2922;53.482;10.006;2023-08-12T12:40:00;9.70;;;7.03;;
5791;SDS011;2922;53.482;10.006;2023-08-12T12:43:29;7.90;;;5.93;;
5791;SDS011;2922;53.482;10.006;2023-08-12T12:45:55;8.97;;;6.80;;
5791;SDS011;2922;53.482;10.006;2023-08-12T12:48:20;9.27;;;6.30;;
5791;SDS011;2922;53.482;10.006;2023-08-12T12:50:46;7.93;;;6.53;;
5791;SDS011;2922;53.482;10.006;2023-08-12T12:53:11;7.87;;;5.83;;
5791;SDS011;2922;53.482;10.006;2023-08-12T12:55:37;7.67;;;6.70;;
5791;SDS011;2922;53.482;10.006;2023-08-12T12:58:02;9.47;;;7.00;;
5791;SDS011;2922;53.482;10.006;2023-08-12T13:00:28;6.53;;;5.70;;
5791;SDS011;2922;53.482;10.006;2023-08-12T13:02:54;11.40;;;6.70;;
5791;SDS011;2922;53.482;10.006;2023-08-12T13:05:19;11.00;;;7.47;;
5791;SDS011;2922;53.482;10.006;2023-08-12T13:07:45;10.43;;;7.00;;
5791;SDS011;2922;53.482;10.006;2023-08-12T13:10:11;13.90;;;7.43;;
5791;SDS011;2922;53.482;10.006;2023-08-12T13:12:36;9.47;;;5.57;;
5791;SDS011;2922;53.482;10.006;2023-08-12T13:15:02;7.03;;;6.03;;
5791;SDS011;2922;53.482;10.006;2023-08-12T13:17:28;6.80;;;6.00;;
5791;SDS011;2922;53.482;10.006;2023-08-12T13:19:54;9.83;;;6.83;;
5791;SDS011;2922;53.482;10.006;2023-08-12T13:22:19;8.90;;;6.37;;
5791;SDS011;2922;53.482;10.006;2023-08-12T13:24:45;9.53;;;6.80;;
5791;SDS011;2922;53.482;10.006;2023-08-12T13:27:11;10.67;;;6.10;;
5791;SDS011;2922;53.482;10.006;2023-08-12T13:29:38;8.70;;;6.57;;
5791;SDS011;2922;53.482;10.006;2023-08-12T13:32:04;10.80;;;6.20;;
5791;SDS011;2922;53.482;10.006;2023-08-12T13:34:29;9.00;;;6.40;;
5791;SDS011;2922;53.482;10.006;2023-08-12T13:36:55;7.63;;;6.53;;
5791;SDS011;2922;53.482;10.006;2023-08-12T13:39:20;10.07;;;6.60;;
5791;SDS011;2922;53.482;10.006;2023-08-12T13:41:47;8.60;;;6.73;;
5791;SDS011;2922;53.482;10.006;2023-08-12T13:44:13;10.40;;;7.13;;
5791;SDS011;2922;53.482;10.006;2023-08-12T13:46:39;11.00;;;7.00;;
5791;SDS011;2922;53.482;10.006;2023-08-12T13:49:05;7.93;;;6.27;;
5791;SDS011;2922;53.482;10.006;2023-08-12T13:51:31;8.20;;;5.83;;
5791;SDS011;2922;53.482;10.006;2023-08-12T13:53:56;8.57;;;5.87;;
5791;SDS011;2922;53.482;10.006;2023-08-12T13:56:22;7.90;;;5.90;;
5791;SDS011;2922;53.482;10.006;2023-08-12T13:58:48;6.70;;;5.87;;
5791;SDS011;2922;53.482;10.006;2023-08-12T14:01:13;10.03;;;5.80;;
5791;SDS011;2922;53.482;10.006;2023-08-12T14:03:39;11.70;;;6.67;;
5791;SDS011;2922;53.482;10.006;2023-08-12T14:06:10;9.60;;;5.60;;
5791;SDS011;2922;53.482;10.006;2023-08-12T14:08:36;9.10;;;6.23;;
5791;SDS011;2922;53.482;10.006;2023-08-12T14:11:01;9.80;;;6.67;;
5791;SDS011;2922;53.482;10.006;2023-08-12T14:13:27;9.17;;;6.63;;
5791;SDS011;2922;53.482;10.006;2023-08-12T14:15:53;7.97;;;6.03;;
5791;SDS011;2922;53.482;10.006;2023-08-12T14:18:19;8.20;;;6.43;;
5791;SDS011;2922;53.482;10.006;2023-08-12T14:20:44;11.03;;;7.13;;
5791;SDS011;2922;53.482;10.006;2023-08-12T14:23:10;10.60;;;6.47;;
5791;SDS011;2922;53.482;10.006;2023-08-12T14:25:36;8.90;;;6.67;;
5791;SDS011;2922;53.482;10.006;2023-08-12T14:28:01;10.10;;;6.97;;
5791;SDS011;2922;53.482;10.006;2023-08-12T14:30:27;13.60;;;7.77;;
5791;SDS011;2922;53.482;10.006;2023-08-12T14:32:53;9.80;;;7.43;;
5791;SDS011;2922;53.482;10.006;2023-08-12T14:35:19;11.07;;;7.37;;
5791;SDS011;2922;53.482;10.006;2023-08-12T14:37:45;12.87;;;7.97;;
5791;SDS011;2922;53.482;10.006;2023-08-12T14:40:10;13.30;;;7.77;;
5791;SDS011;2922;53.482;10.006;2023-08-12T14:42:36;11.70;;;8.10;;
5791;SDS011;2922;53.482;10.006;2023-08-12T14:45:02;11.83;;;8.10;;
5791;SDS011;2922;53.482;10.006;2023-08-12T14:47:28;13.20;;;8.80;;
5791;SDS011;2922;53.482;10.006;2023-08-12T14:49:53;14.63;;;8.40;;
5791;SDS011;2922;53.482;10.006;2023-08-12T14:52:20;15.13;;;8.80;;
5791;SDS011;2922;53.482;10.006;2023-08-12T14:54:46;12.40;;;8.63;;
5791;SDS011;2922;53.482;10.006;2023-08-12T14:57:11;11.63;;;7.87;;
5791;SDS011;2922;53.482;10.006;2023-08-12T14:59:37;13.07;;;8.93;;
5791;SDS011;2922;53.482;10.006;2023-08-12T15:02:03;14.13;;;9.30;;
5791;SDS011;2922;53.482;10.006;2023-08-12T15:04:29;12.67;;;7.63;;
5791;SDS011;2922;53.482;10.006;2023-08-12T15:06:55;10.23;;;8.13;;
5791;SDS011;2922;53.482;10.006;2023-08-12T15:09:20;14.83;;;8.60;;
5791;SDS011;2922;53.482;10.006;2023-08-12T15:11:46;13.17;;;9.23;;
5791;SDS011;2922;53.482;10.006;2023-08-12T15:14:11;13.20;;;8.80;;
5791;SDS011;2922;53.482;10.006;2023-08-12T15:16:37;17.37;;;9.00;;
5791;SDS011;2922;53.482;10.006;2023-08-12T15:19:03;10.93;;;8.87;;
5791;SDS011;2922;53.482;10.006;2023-08-12T15:21:29;10.70;;;8.47;;
5791;SDS011;2922;53.482;10.006;2023-08-12T15:23:54;14.30;;;9.53;;
5791;SDS011;2922;53.482;10.006;2023-08-12T15:26:20;14.20;;;9.93;;
5791;SDS011;2922;53.482;10.006;2023-08-12T15:28:47;15.43;;;9.67;;
5791;SDS011;2922;53.482;10.006;2023-08-12T15:31:13;11.73;;;9.30;;
5791;SDS011;2922;53.482;10.006;2023-08-12T15:33:39;13.83;;;10.73;;
5791;SDS011;2922;53.482;10.006;2023-08-12T15:36:06;11.40;;;8.80;;
5791;SDS011;2922;53.482;10.006;2023-08-12T15:38:31;16.23;;;9.87;;
5791;SDS011;2922;53.482;10.006;2023-08-12T15:40:58;10.27;;;8.60;;
5791;SDS011;2922;53.482;10.006;2023-08-12T15:43:24;16.30;;;10.33;;
5791;SDS011;2922;53.482;10.006;2023-08-12T15:45:49;12.87;;;9.70;;
5791;SDS011;2922;53.482;10.006;2023-08-12T15:48:16;14.60;;;9.23;;
5791;SDS011;2922;53.482;10.006;2023-08-12T15:50:42;9.87;;;8.23;;
5791;SDS011;2922;53.482;10.006;2023-08-12T15:53:09;10.20;;;8.10;;
5791;SDS011;2922;53.482;10.006;2023-08-12T15:55:35;13.00;;;9.27;;
5791;SDS011;2922;53.482;10.006;2023-08-12T15:58:01;12.30;;;7.37;;
5791;SDS011;2922;53.482;10.006;2023-08-12T16:00:26;11.60;;;7.80;;
5791;SDS011;2922;53.482;10.006;2023-08-12T16:02:52;10.83;;;8.53;;
5791;SDS011;2922;53.482;10.006;2023-08-12T16:05:17;11.20;;;7.70;;
5791;SDS011;2922;53.482;10.006;2023-08-12T16:07:43;10.30;;;6.90;;
5791;SDS011;2922;53.482;10.006;2023-08-12T16:10:09;7.33;;;6.57;;
5791;SDS011;2922;53.482;10.006;2023-08-12T16:12:34;9.30;;;7.53;;
5791;SDS011;2922;53.482;10.006;2023-08-12T16:15:00;5.00;;;4.50;;
5791;SDS011;2922;53.482;10.006;2023-08-12T16:17:26;6.33;;;4.30;;
5791;SDS011;2922;53.482;10.006;2023-08-12T16:19:52;3.87;;;3.47;;
5791;SDS011;2922;53.482;10.006;2023-08-12T16:22:17;4.17;;;3.77;;
5791;SDS011;2922;53.482;10.006;2023-08-12T16:24:43;3.63;;;3.17;;
5791;SDS011;2922;53.482;10.006;2023-08-12T16:27:09;11.87;;;4.47;;
5791;SDS011;2922;53.482;10.006;2023-08-12T16:29:34;5.73;;;1.80;;
5791;SDS011;2922;53.482;10.006;2023-08-12T16:32:00;3.67;;;1.60;;
5791;SDS011;2922;53.482;10.006;2023-08-12T16:34:26;2.73;;;1.43;;
5791;SDS011;2922;53.482;10.006;2023-08-12T16:36:51;1.30;;;1.20;;
5791;SDS011;2922;53.482;10.006;2023-08-12T16:39:17;2.50;;;1.40;;
5791;SDS011;2922;53.482;10.006;2023-08-12T16:41:43;1.20;;;1.10;;
5791;SDS011;2922;53.482;10.006;2023-08-12T16:44:08;1.43;;;1.10;;
5791;SDS011;2922;53.482;10.006;2023-08-12T16:46:34;2.33;;;1.00;;
5791;SDS011;2922;53.482;10.006;2023-08-12T16:48:59;1.37;;;1.00;;
5791;SDS011;2922;53.482;10.006;2023-08-12T16:51:25;0.87;;;0.80;;
5791;SDS011;2922;53.482;10.006;2023-08-12T16:53:51;1.83;;;0.90;;
5791;SDS011;2922;53.482;10.006;2023-08-12T16:56:17;1.03;;;0.90;;
5791;SDS011;2922;53.482;10.006;2023-08-12T16:58:42;1.13;;;1.03;;
5791;SDS011;2922;53.482;10.006;2023-08-12T17:01:08;1.30;;;1.00;;
5791;SDS011;2922;53.482;10.006;2023-08-12T17:03:33;1.47;;;1.20;;
5791;SDS011;2922;53.482;10.006;2023-08-12T17:05:59;1.03;;;0.93;;
5791;SDS011;2922;53.482;10.006;2023-08-12T17:08:24;1.17;;;1.07;;
5791;SDS011;2922;53.482;10.006;2023-08-12T17:10:50;1.63;;;1.30;;
5791;SDS011;2922;53.482;10.006;2023-08-12T17:13:16;2.10;;;1.40;;
5791;SDS011;2922;53.482;10.006;2023-08-12T17:15:43;1.30;;;1.20;;
5791;SDS011;2922;53.482;10.006;2023-08-12T17:18:09;1.50;;;1.10;;
5791;SDS011;2922;53.482;10.006;2023-08-12T17:20:34;2.00;;;1.50;;
5791;SDS011;2922;53.482;10.006;2023-08-12T17:23:00;2.03;;;1.93;;
5791;SDS011;2922;53.482;10.006;2023-08-12T17:25:25;2.47;;;2.03;;
5791;SDS011;2922;53.482;10.006;2023-08-12T17:27:51;4.07;;;2.20;;
5791;SDS011;2922;53.482;10.006;2023-08-12T17:30:17;1.80;;;1.60;;
5791;SDS011;2922;53.482;10.006;2023-08-12T17:32:43;2.10;;;1.70;;
5791;SDS011;2922;53.482;10.006;2023-08-12T17:35:09;2.30;;;1.90;;
5791;SDS011;2922;53.482;10.006;2023-08-12T17:37:37;1.90;;;1.70;;
5791;SDS011;2922;53.482;10.006;2023-08-12T17:40:03;2.17;;;1.97;;
5791;SDS011;2922;53.482;10.006;2023-08-12T17:42:30;2.43;;;1.80;;
5791;SDS011;2922;53.482;10.006;2023-08-12T17:44:56;2.70;;;2.03;;
5791;SDS011;2922;53.482;10.006;2023-08-12T17:47:22;5.00;;;2.40;;
5791;SDS011;2922;53.482;10.006;2023-08-12T17:49:47;2.20;;;2.00;;
5791;SDS011;2922;53.482;10.006;2023-08-12T17:52:13;1.93;;;1.73;;
5791;SDS011;2922;53.482;10.006;2023-08-12T17:54:38;2.53;;;1.90;;
5791;SDS011;2922;53.482;10.006;2023-08-12T17:57:04;2.77;;;1.60;;
5791;SDS011;2922;53.482;10.006;2023-08-12T17:59:30;2.00;;;1.80;;
5791;SDS011;2922;53.482;10.006;2023-08-12T18:01:58;2.17;;;1.93;;
5791;SDS011;2922;53.482;10.006;2023-08-12T18:04:24;2.70;;;2.07;;
5791;SDS011;2922;53.482;10.006;2023-08-12T18:06:50;2.03;;;1.63;;
5791;SDS011;2922;53.482;10.006;2023-08-12T18:09:16;2.37;;;2.10;;
5791;SDS011;2922;53.482;10.006;2023-08-12T18:11:43;2.47;;;2.10;;
5791;SDS011;2922;53.482;10.006;2023-08-12T18:14:09;1.93;;;1.70;;
5791;SDS011;2922;53.482;10.006;2023-08-12T18:16:35;2.13;;;1.73;;
5791;SDS011;2922;53.482;10.006;2023-08-12T18:19:18;4.67;;;2.27;;
5791;SDS011;2922;53.482;10.006;2023-08-12T18:21:44;4.87;;;2.07;;
5791;SDS011;2922;53.482;10.006;2023-08-12T18:24:10;2.30;;;1.70;;
5791;SDS011;2922;53.482;10.006;2023-08-12T18:26:35;2.43;;;1.90;;
5791;SDS011;2922;53.482;10.006;2023-08-12T18:29:01;2.80;;;1.97;;
5791;SDS011;2922;53.482;10.006;2023-08-12T18:31:27;2.50;;;2.00;;
5791;SDS011;2922;53.482;10.006;2023-08-12T18:33:52;9.40;;;2.40;;
5791;SDS011;2922;53.482;10.006;2023-08-12T18:36:18;4.13;;;1.80;;
5791;SDS011;2922;53.482;10.006;2023-08-12T18:38:43;2.73;;;1.80;;
5791;SDS011;2922;53.482;10.006;2023-08-12T18:41:10;3.70;;;1.87;;
5791;SDS011;2922;53.482;10.006;2023-08-12T18:43:36;4.37;;;2.10;;
5791;SDS011;2922;53.482;10.006;2023-08-12T18:46:02;7.20;;;2.73;;
5791;SDS011;2922;53.482;10.006;2023-08-12T18:48:28;5.13;;;2.10;;
5791;SDS011;2922;53.482;10.006;2023-08-12T18:50:54;2.63;;;1.90;;
5791;SDS011;2922;53.482;10.006;2023-08-12T18:53:20;3.37;;;1.93;;
5791;SDS011;2922;53.482;10.006;2023-08-12T18:55:45;3.50;;;1.83;;
5791;SDS011;2922;53.482;10.006;2023-08-12T18:58:11;3.90;;;1.90;;
5791;SDS011;2922;53.482;10.006;2023-08-12T19:00:37;4.73;;;2.20;;
5791;SDS011;2922;53.482;10.006;2023-08-12T19:03:03;3.40;;;1.87;;
5791;SDS011;2922;53.482;10.006;2023-08-12T19:05:28;3.40;;;2.20;;
5791;SDS011;2922;53.482;10.006;2023-08-12T19:07:54;2.93;;;1.90;;
5791;SDS011;2922;53.482;10.006;2023-08-12T19:10:20;12.13;;;2.33;;
5791;SDS011;2922;53.482;10.006;2023-08-12T19:12:45;2.65;;;2.10;;
5791;SDS011;2922;53.482;10.006;2023-08-12T19:15:11;3.33;;;1.67;;
5791;SDS011;2922;53.482;10.006;2023-08-12T19:17:36;4.97;;;1.70;;
5791;SDS011;2922;53.482;10.006;2023-08-12T19:20:02;4.53;;;1.97;;
5791;SDS011;2922;53.482;10.006;2023-08-12T19:22:29;5.10;;;1.80;;
5791;SDS011;2922;53.482;10.006;2023-08-12T19:24:54;9.37;;;2.20;;
5791;SDS011;2922;53.482;10.006;2023-08-12T19:27:20;5.03;;;2.00;;
5791;SDS011;2922;53.482;10.006;2023-08-12T19:29:45;5.27;;;1.83;;
5791;SDS011;2922;53.482;10.006;2023-08-12T19:32:11;5.40;;;1.90;;
5791;SDS011;2922;53.482;10.006;2023-08-12T19:34:37;4.57;;;2.10;;
5791;SDS011;2922;53.482;10.006;2023-08-12T19:37:02;5.23;;;1.67;;
5791;SDS011;2922;53.482;10.006;2023-08-12T19:39:28;7.27;;;2.73;;
5791;SDS011;2922;53.482;10.006;2023-08-12T19:41:53;9.15;;;2.20;;
5791;SDS011;2922;53.482;10.006;2023-08-12T19:44:19;9.50;;;1.87;;
5791;SDS011;2922;53.482;10.006;2023-08-12T19:46:44;9.43;;;2.50;;
5791;SDS011;2922;53.482;10.006;2023-08-12T19:49:10;8.37;;;3.00;;
5791;SDS011;2922;53.482;10.006;2023-08-12T19:51:35;6.20;;;2.20;;
5791;SDS011;2922;53.482;10.006;2023-08-12T19:54:01;4.20;;;2.03;;
5791;SDS011;2922;53.482;10.006;2023-08-12T19:56:27;6.43;;;1.83;;
5791;SDS011;2922;53.482;10.006;2023-08-12T19:58:52;3.63;;;1.80;;
5791;SDS011;2922;53.482;10.006;2023-08-12T20:01:18;4.27;;;2.20;;
5791;SDS011;2922;53.482;10.006;2023-08-12T20:03:43;3.80;;;1.80;;
5791;SDS011;2922;53.482;10.006;2023-08-12T20:06:10;6.03;;;1.87;;
5791;SDS011;2922;53.482;10.006;2023-08-12T20:08:35;5.37;;;1.77;;